createdAt,value
2023-04-25T00:01:24.487Z,97888.94
2023-04-25T00:03:26.315Z,97891.69
2023-04-25T00:05:28.115Z,97886.16
2023-04-25T00:07:29.783Z,97881.50
2023-04-25T00:09:31.640Z,97886.66
2023-04-25T00:11:33.153Z,97890.25
2023-04-25T00:13:34.640Z,97884.75
2023-04-25T00:15:37.079Z,97888.00
2023-04-25T00:17:39.665Z,97887.50
2023-04-25T00:19:41.172Z,97883.63
2023-04-25T00:21:42.694Z,97883.31
2023-04-25T00:23:44.465Z,97885.25
2023-04-25T00:25:47.095Z,97878.63
2023-04-25T00:27:48.554Z,97887.72
2023-04-25T00:29:50.144Z,97883.31
2023-04-25T00:31:51.680Z,97888.00
2023-04-25T00:33:54.193Z,97882.81
2023-04-25T00:35:57.042Z,97880.06
2023-04-25T00:37:58.760Z,97879.56
2023-04-25T00:40:00.491Z,97884.25
2023-04-25T00:42:03.091Z,97868.84
2023-04-25T00:44:05.211Z,97874.34
2023-04-25T00:46:06.701Z,97873.53
2023-04-25T00:48:08.363Z,97865.25
2023-04-25T00:50:10.504Z,97868.84
2023-04-25T00:52:13.515Z,97864.16
2023-04-25T00:54:15.335Z,97859.47
2023-04-25T00:56:17.745Z,97864.16
2023-04-25T00:58:20.624Z,97860.56
2023-04-25T01:00:22.543Z,97866.41
2023-04-25T01:02:24.609Z,97871.91
2023-04-25T01:04:28.374Z,97864.75
2023-04-25T01:06:29.893Z,97863.16
2023-04-25T01:08:32.175Z,97850.50
2023-04-25T01:10:33.854Z,97854.34
2023-04-25T01:12:35.493Z,97870.88
2023-04-25T01:14:36.981Z,97863.25
2023-04-25T01:16:40.722Z,97855.78
2023-04-25T01:18:43.594Z,97851.09
2023-04-25T01:20:46.755Z,97849.16
2023-04-25T01:22:48.584Z,97846.41
2023-04-25T01:24:50.568Z,97846.91
2023-04-25T01:26:52.271Z,97841.91
2023-04-25T01:28:59.787Z,97852.31
2023-04-25T01:31:02.449Z,97847.31
2023-04-25T01:33:05.666Z,97845.88
2023-04-25T01:35:11.881Z,97850.75
2023-04-25T01:37:13.471Z,97852.06
2023-04-25T01:39:15.101Z,97849.81
2023-04-25T01:41:17.983Z,97856.34
2023-04-25T01:43:19.582Z,97856.34
2023-04-25T01:45:21.135Z,97846.66
2023-04-25T01:47:23.725Z,97849.41
2023-04-25T01:49:25.478Z,97853.78
2023-04-25T01:51:27.583Z,97845.50
2023-04-25T01:53:29.380Z,97855.41
2023-04-25T01:55:31.622Z,97853.47
2023-04-25T01:57:40.732Z,97853.78
2023-04-25T01:59:44.533Z,97854.91
2023-04-25T02:02:12.214Z,97856.84
2023-04-25T02:04:13.995Z,97847.78
2023-04-25T02:06:17.244Z,97850.53
2023-04-25T02:08:20.925Z,97843.91
2023-04-25T02:10:22.911Z,97844.50
2023-04-25T02:12:31.912Z,97846.78
2023-04-25T02:14:48.659Z,97850.63
2023-04-25T02:16:55.152Z,97853.09
2023-04-25T02:18:56.768Z,97846.78
2023-04-25T02:21:00.679Z,97847.06
2023-04-25T02:23:02.154Z,97843.53
2023-04-25T02:25:05.580Z,97842.38
2023-04-25T02:27:07.267Z,97843.53
2023-04-25T02:29:11.347Z,97840.75
2023-04-25T02:31:12.966Z,97836.38
2023-04-25T02:33:14.488Z,97836.06
2023-04-25T02:35:15.932Z,97839.63
2023-04-25T02:37:17.463Z,97832.50
2023-04-25T02:39:20.668Z,97830.03
2023-04-25T02:41:22.193Z,97837.81
2023-04-25T02:43:23.734Z,97829.22
2023-04-25T02:45:27.243Z,97826.47
2023-04-25T02:47:29.020Z,97830.66
2023-04-25T02:49:30.562Z,97823.34
2023-04-25T02:51:32.285Z,97820.41
2023-04-25T02:53:33.805Z,97820.22
2023-04-25T02:55:35.461Z,97828.25
2023-04-25T02:57:38.609Z,97826.75
2023-04-25T02:59:40.556Z,97822.19
2023-04-25T03:01:42.013Z,97815.16
2023-04-25T03:03:43.630Z,97818.03
2023-04-25T03:05:46.066Z,97811.81
2023-04-25T03:07:47.730Z,97819.06
2023-04-25T03:09:51.157Z,97812.84
2023-04-25T03:11:52.765Z,97822.03
2023-04-25T03:13:54.555Z,97814.38
2023-04-25T03:15:56.265Z,97818.03
2023-04-25T03:17:57.829Z,97819.75
2023-04-25T03:19:59.348Z,97805.28
2023-04-25T03:22:01.147Z,97820.47
2023-04-25T03:24:05.022Z,97817.53
2023-04-25T03:26:06.799Z,97817.31
2023-04-25T03:28:08.477Z,97819.88
2023-04-25T03:30:10.216Z,97815.50
2023-04-25T03:32:13.133Z,97818.56
2023-04-25T03:34:15.748Z,97819.88
2023-04-25T03:36:17.264Z,97830.88
2023-04-25T03:38:18.772Z,97824.25
2023-04-25T03:40:20.959Z,97818.47
2023-04-25T03:42:44.908Z,97821.22
2023-04-25T03:44:47.446Z,97822.00
2023-04-25T03:46:49.334Z,97823.31
2023-04-25T03:48:51.152Z,97820.28
2023-04-25T03:50:57.145Z,97816.09
2023-04-25T03:52:58.929Z,97815.78
2023-04-25T03:55:03.502Z,97817.72
2023-04-25T03:57:04.998Z,97816.59
2023-04-25T03:59:09.649Z,97817.72
2023-04-25T04:01:11.214Z,97821.78
2023-04-25T04:03:14.430Z,97819.88
2023-04-25T04:05:16.214Z,97820.69
2023-04-25T04:07:24.761Z,97823.44
2023-04-25T04:09:29.504Z,97831.69
2023-04-25T04:11:33.321Z,97835.25
2023-04-25T04:13:34.834Z,97835.16
2023-04-25T04:15:37.438Z,97839.50
2023-04-25T04:17:39.152Z,97840.06
2023-04-25T04:19:40.639Z,97838.34
2023-04-25T04:21:48.207Z,97837.72
2023-04-25T04:23:50.001Z,97841.81
2023-04-25T04:25:53.187Z,97839.56
2023-04-25T04:28:05.981Z,97842.50
2023-04-25T04:30:16.856Z,97840.25
2023-04-25T04:32:31.393Z,97854.53
2023-04-25T04:34:34.815Z,97848.41
2023-04-25T04:36:36.628Z,97856.06
2023-04-25T04:38:40.068Z,97854.91
2023-04-25T04:40:44.674Z,97840.53
2023-04-25T04:43:04.874Z,97851.75
2023-04-25T04:45:06.701Z,97851.16
2023-04-25T04:47:25.014Z,97849.41
2023-04-25T04:49:37.477Z,97849.06
2023-04-25T04:52:06.258Z,97850.09
2023-04-25T04:54:38.311Z,97856.59
2023-04-25T04:57:03.002Z,97860.69
2023-04-25T04:59:25.992Z,97873.53
2023-04-25T05:01:50.915Z,97860.28
2023-04-25T05:03:53.326Z,97870.03
2023-04-25T05:06:13.630Z,97865.56
2023-04-25T05:08:34.437Z,97858.59
2023-04-25T05:10:44.843Z,97863.47
2023-04-25T05:12:54.947Z,97862.84
2023-04-25T05:15:15.310Z,97862.56
2023-04-25T05:17:37.034Z,97856.72
2023-04-25T05:19:55.875Z,97869.56
2023-04-25T05:22:09.810Z,97865.09
2023-04-25T05:24:31.446Z,97867.84
2023-04-25T05:26:47.247Z,97874.94
2023-04-25T05:28:59.089Z,97867.19
2023-04-25T05:31:12.224Z,97869.94
2023-04-25T05:33:21.590Z,97867.19
2023-04-25T05:35:23.248Z,97868.34
2023-04-25T05:37:26.096Z,97876.28
2023-04-25T05:39:31.298Z,97879.84
2023-04-25T05:41:38.799Z,97882.59
2023-04-25T05:44:00.640Z,97873.22
2023-04-25T05:46:08.435Z,97883.44
2023-04-25T05:48:26.009Z,97879.03
2023-04-25T05:50:37.762Z,97880.19
2023-04-25T05:52:51.061Z,97886.47
2023-04-25T05:55:12.779Z,97886.78
2023-04-25T05:57:24.257Z,97889.56
2023-04-25T05:59:26.168Z,97888.72
2023-04-25T06:01:27.596Z,97891.97
2023-04-25T06:03:29.415Z,97888.13
2023-04-25T06:05:33.245Z,97895.28
2023-04-25T06:07:34.910Z,97893.63
2023-04-25T06:09:39.823Z,97894.44
2023-04-25T06:11:41.278Z,97896.88
2023-04-25T06:13:43.173Z,97898.53
2023-04-25T06:15:44.755Z,97900.13
2023-04-25T06:17:47.081Z,97892.38
2023-04-25T06:19:48.564Z,97900.66
2023-04-25T06:21:50.021Z,97898.69
2023-04-25T06:23:51.902Z,97900.84
2023-04-25T06:25:57.339Z,97904.41
2023-04-25T06:27:59.690Z,97904.41
2023-04-25T06:30:01.211Z,97904.13
2023-04-25T06:32:03.658Z,97900.56
2023-04-25T06:34:05.254Z,97900.56
2023-04-25T06:36:11.240Z,97906.09
2023-04-25T06:38:13.944Z,97896.66
2023-04-25T06:40:20.237Z,97905.44
2023-04-25T06:42:21.618Z,97901.88
2023-04-25T06:44:32.965Z,97901.06
2023-04-25T06:46:34.541Z,97898.81
2023-04-25T06:48:35.986Z,97902.38
2023-04-25T06:50:37.534Z,97905.31
2023-04-25T06:52:39.126Z,97898.69
2023-04-25T06:54:41.100Z,97906.63
2023-04-25T06:56:55.281Z,97913.78
2023-04-25T06:58:56.767Z,97909.09
2023-04-25T07:01:27.667Z,97915.09
2023-04-25T07:03:29.982Z,97917.25
2023-04-25T07:05:35.969Z,97918.84
2023-04-25T07:07:37.563Z,97914.97
2023-04-25T07:09:39.204Z,97919.03
2023-04-25T07:11:40.684Z,97921.19
2023-04-25T07:13:42.319Z,97925.25
2023-04-25T07:15:44.553Z,97921.06
2023-04-25T07:17:47.071Z,97918.78
2023-04-25T07:19:48.583Z,97920.13
2023-04-25T07:21:50.982Z,97915.09
2023-04-25T07:23:53.790Z,97922.75
2023-04-25T07:26:00.683Z,97924.88
2023-04-25T07:28:03.585Z,97929.78
2023-04-25T07:30:05.920Z,97928.34
2023-04-25T07:32:08.621Z,97932.06
2023-04-25T07:34:10.165Z,97929.81
2023-04-25T07:36:13.855Z,97923.38
2023-04-25T07:38:15.460Z,97923.53
2023-04-25T07:40:17.485Z,97932.31
2023-04-25T07:42:23.295Z,97932.50
2023-04-25T07:44:25.350Z,97934.31
2023-04-25T07:46:27.368Z,97933.19
2023-04-25T07:48:29.113Z,97930.59
2023-04-25T07:50:31.857Z,97928.03
2023-04-25T07:52:33.707Z,97930.97
2023-04-25T07:54:42.682Z,97933.91
2023-04-25T07:56:53.468Z,97928.25
2023-04-25T07:58:58.881Z,97930.91
2023-04-25T08:01:00.424Z,97928.81
2023-04-25T08:03:24.015Z,97931.63
2023-04-25T08:05:26.654Z,97926.13
2023-04-25T08:07:36.099Z,97934.13
2023-04-25T08:09:40.004Z,97926.19
2023-04-25T08:11:46.936Z,97934.16
2023-04-25T08:13:51.367Z,97937.78
2023-04-25T08:15:52.992Z,97930.31
2023-04-25T08:17:54.921Z,97938.63
2023-04-25T08:19:56.832Z,97939.19
2023-04-25T08:22:02.352Z,97932.53
2023-04-25T08:24:12.556Z,97939.38
2023-04-25T08:26:16.098Z,97944.06
2023-04-25T08:28:18.450Z,97936.25
2023-04-25T08:30:20.600Z,97938.22
2023-04-25T08:32:22.405Z,97942.13
2023-04-25T08:34:43.764Z,97945.84
2023-04-25T08:36:45.735Z,97943.56
2023-04-25T08:39:06.242Z,97950.22
2023-04-25T08:41:14.727Z,97951.97
2023-04-25T08:43:18.846Z,97960.75
2023-04-25T08:45:21.436Z,97946.06
2023-04-25T08:47:23.664Z,97951.44
2023-04-25T08:49:33.085Z,97954.38
2023-04-25T08:51:37.075Z,97957.44
2023-04-25T08:53:43.685Z,97959.66
2023-04-25T08:55:47.204Z,97956.53
2023-04-25T08:57:49.110Z,97961.72
2023-04-25T08:59:53.656Z,97963.00
2023-04-25T09:01:56.257Z,97967.81
2023-04-25T09:03:58.665Z,97962.34
2023-04-25T09:06:00.515Z,97961.28
2023-04-25T09:08:02.821Z,97970.50
2023-04-25T09:10:04.801Z,97963.03
2023-04-25T09:12:10.902Z,97976.22
2023-04-25T09:14:13.785Z,97976.63
2023-04-25T09:16:38.841Z,97967.53
2023-04-25T09:19:08.098Z,97967.13
2023-04-25T09:21:14.321Z,97975.47
2023-04-25T09:23:21.721Z,97985.84
2023-04-25T09:25:26.030Z,97993.38
2023-04-25T09:27:27.952Z,97989.38
2023-04-25T09:30:00.356Z,97990.44
2023-04-25T09:32:15.252Z,97990.81
2023-04-25T09:34:18.079Z,98003.44
2023-04-25T09:36:30.493Z,98002.31
2023-04-25T09:39:16.582Z,97997.56
2023-04-25T09:41:25.776Z,97990.03
2023-04-25T09:43:29.494Z,97990.88
2023-04-25T09:45:32.613Z,97990.06
2023-04-25T09:47:38.758Z,97991.19
2023-04-25T09:49:45.763Z,97985.16
2023-04-25T09:51:58.284Z,97990.69
2023-04-25T09:54:02.958Z,97992.53
2023-04-25T09:56:13.038Z,97988.34
2023-04-25T09:58:15.821Z,97982.09
2023-04-25T10:00:18.695Z,97989.16
2023-04-25T10:02:26.139Z,97994.97
2023-04-25T10:04:35.404Z,97992.78
2023-04-25T10:06:43.942Z,97995.81
2023-04-25T10:08:48.116Z,97994.91
2023-04-25T10:10:51.743Z,98005.91
2023-04-25T10:12:54.113Z,97999.66
2023-04-25T10:14:56.440Z,98008.00
2023-04-25T10:16:59.752Z,98010.31
2023-04-25T10:19:02.136Z,98004.31
2023-04-25T10:21:06.012Z,98012.91
2023-04-25T10:23:14.102Z,98020.66
2023-04-25T10:25:16.179Z,98012.56
2023-04-25T10:27:18.158Z,98012.78
2023-04-25T10:29:26.843Z,98011.41
2023-04-25T10:31:30.020Z,98012.56
2023-04-25T10:33:37.767Z,98011.41
2023-04-25T10:35:39.471Z,98014.19
2023-04-25T10:38:14.627Z,98014.19
2023-04-25T10:40:23.084Z,98024.16
2023-04-25T10:42:24.524Z,98021.84
2023-04-25T10:44:30.927Z,98022.97
2023-04-25T10:46:35.021Z,98025.75
2023-04-25T10:48:36.470Z,98032.84
2023-04-25T10:50:40.061Z,98029.97
2023-04-25T10:52:41.608Z,98033.31
2023-04-25T10:54:52.225Z,98041.75
2023-04-25T10:56:54.273Z,98027.72
2023-04-25T10:59:13.240Z,98026.44
2023-04-25T11:01:16.771Z,98041.16
2023-04-25T11:03:18.404Z,98039.19
2023-04-25T11:05:47.630Z,98038.25
2023-04-25T11:08:07.903Z,98042.53
2023-04-25T11:10:09.932Z,98040.81
2023-04-25T11:12:12.867Z,98037.09
2023-04-25T11:14:14.545Z,98041.59
2023-04-25T11:16:26.758Z,98034.63
2023-04-25T11:18:29.514Z,98042.38
2023-04-25T11:20:30.986Z,98045.38
2023-04-25T11:22:32.652Z,98046.88
2023-04-25T11:24:35.894Z,98046.28
2023-04-25T11:26:38.463Z,98046.38
2023-04-25T11:28:40.143Z,98049.50
2023-04-25T11:30:49.618Z,98053.66
2023-04-25T11:32:52.923Z,98054.34
2023-04-25T11:34:54.569Z,98058.94
2023-04-25T11:36:56.139Z,98059.25
2023-04-25T11:38:57.926Z,98068.25
2023-04-25T11:40:59.702Z,98065.00
2023-04-25T11:43:02.256Z,98055.88
2023-04-25T11:45:05.233Z,98056.91
2023-04-25T11:47:06.806Z,98058.06
2023-04-25T11:49:08.225Z,98052.38
2023-04-25T11:51:10.070Z,98051.91
2023-04-25T11:53:11.795Z,98056.63
2023-04-25T11:55:18.330Z,98070.38
2023-04-25T11:57:21.037Z,98073.50
2023-04-25T11:59:26.495Z,98068.31
2023-04-25T12:01:30.535Z,98071.41
2023-04-25T12:03:34.179Z,98072.91
2023-04-25T12:05:36.049Z,98069.66
2023-04-25T12:07:40.188Z,98070.78
2023-04-25T12:09:42.511Z,98072.28
2023-04-25T12:12:05.243Z,98076.91
2023-04-25T12:14:07.663Z,98070.06
2023-04-25T12:16:09.151Z,98076.28
2023-04-25T12:18:10.765Z,98074.69
2023-04-25T12:20:15.633Z,98083.31
2023-04-25T12:22:24.813Z,98081.72
2023-04-25T12:24:28.711Z,98080.91
2023-04-25T12:26:51.091Z,98084.69
2023-04-25T12:28:53.563Z,98086.19
2023-04-25T12:31:00.082Z,98094.50
2023-04-25T12:33:01.856Z,98102.34
2023-04-25T12:35:03.436Z,98096.31
2023-04-25T12:37:04.857Z,98103.81
2023-04-25T12:39:06.307Z,98101.41
2023-04-25T12:41:08.414Z,98096.19
2023-04-25T12:43:09.830Z,98096.84
2023-04-25T12:45:11.280Z,98099.13
2023-04-25T12:47:12.781Z,98104.22
2023-04-25T12:49:18.748Z,98106.84
2023-04-25T12:51:20.663Z,98117.31
2023-04-25T12:53:23.744Z,98102.44
2023-04-25T12:55:25.205Z,98111.13
2023-04-25T12:57:26.714Z,98110.19
2023-04-25T12:59:28.666Z,98111.31
2023-04-25T13:01:30.768Z,98107.59
2023-04-25T13:03:33.070Z,98113.47
2023-04-25T13:05:34.664Z,98112.97
2023-04-25T13:07:36.193Z,98118.38
2023-04-25T13:09:37.778Z,98110.25
2023-04-25T13:11:39.601Z,98118.91
2023-04-25T13:13:41.268Z,98118.91
2023-04-25T13:15:42.657Z,98114.84
2023-04-25T13:17:44.158Z,98120.03
2023-04-25T13:19:45.993Z,98125.59
2023-04-25T13:21:47.503Z,98116.47
2023-04-25T13:23:49.275Z,98105.03
2023-04-25T13:25:50.996Z,98115.00
2023-04-25T13:27:52.443Z,98118.56
2023-04-25T13:29:53.909Z,98114.66
2023-04-25T13:31:55.834Z,98126.22
2023-04-25T13:33:57.279Z,98126.88
2023-04-25T13:35:58.775Z,98131.63
2023-04-25T13:38:00.680Z,98143.03
2023-04-25T13:40:11.052Z,98136.53
2023-04-25T13:42:12.656Z,98141.63
2023-04-25T13:44:14.198Z,98142.59
2023-04-25T13:46:35.383Z,98144.88
2023-04-25T13:48:39.884Z,98157.31
2023-04-25T13:50:41.310Z,98152.75
2023-04-25T13:52:43.043Z,98151.78
2023-04-25T13:54:44.500Z,98151.63
2023-04-25T13:56:46.586Z,98159.47
2023-04-25T13:58:48.074Z,98157.69
2023-04-25T14:00:49.518Z,98159.97
2023-04-25T14:02:51.361Z,98159.50
2023-04-25T14:04:52.907Z,98169.28
2023-04-25T14:06:54.598Z,98162.09
2023-04-25T14:08:57.517Z,98162.09
2023-04-25T14:10:59.006Z,98175.13
2023-04-25T14:13:01.636Z,98163.53
2023-04-25T14:15:03.638Z,98173.81
2023-04-25T14:17:05.295Z,98170.22
2023-04-25T14:19:06.686Z,98172.19
2023-04-25T14:21:08.183Z,98176.09
2023-04-25T14:23:09.650Z,98179.22
2023-04-25T14:25:11.214Z,98177.91
2023-04-25T14:27:12.812Z,98172.69
2023-04-25T14:29:14.282Z,98171.84
2023-04-25T14:31:15.892Z,98171.38
2023-04-25T14:33:17.329Z,98173.31
2023-04-25T14:35:18.965Z,98173.31
2023-04-25T14:37:20.811Z,98178.38
2023-04-25T14:39:22.294Z,98173.84
2023-04-25T14:41:24.109Z,98181.31
2023-04-25T14:43:25.586Z,98184.75
2023-04-25T14:45:27.076Z,98189.50
2023-04-25T14:47:28.534Z,98178.72
2023-04-25T14:49:30.002Z,98192.56
2023-04-25T14:51:31.920Z,98181.81
2023-04-25T14:53:33.451Z,98186.06
2023-04-25T14:55:34.951Z,98191.13
2023-04-25T14:57:36.406Z,98178.22
2023-04-25T14:59:38.135Z,98184.75
2023-04-25T15:01:43.628Z,98190.44
2023-04-25T15:03:55.539Z,98194.03
2023-04-25T15:06:08.922Z,98197.59
2023-04-25T15:08:20.489Z,98202.31
2023-04-25T15:10:36.941Z,98212.56
2023-04-25T15:12:38.565Z,98209.41
2023-04-25T15:14:42.711Z,98208.25
2023-04-25T15:16:44.269Z,98209.69
2023-04-25T15:18:45.969Z,98226.16
2023-04-25T15:20:47.419Z,98229.06
2023-04-25T15:22:49.784Z,98228.88
2023-04-25T15:24:51.639Z,98236.19
2023-04-25T15:26:53.264Z,98226.88
2023-04-25T15:28:54.712Z,98230.81
2023-04-25T15:30:56.395Z,98235.31
2023-04-25T15:32:57.957Z,98234.00
2023-04-25T15:34:59.428Z,98235.47
2023-04-25T15:37:01.160Z,98238.06
2023-04-25T15:39:02.808Z,98240.34
2023-04-25T15:41:06.749Z,98244.88
2023-04-25T15:43:11.451Z,98244.72
2023-04-25T15:45:14.536Z,98252.81
2023-04-25T15:47:15.955Z,98251.94
2023-04-25T15:49:19.313Z,98248.50
2023-04-25T15:51:21.315Z,98250.25
2023-04-25T15:53:22.771Z,98250.38
2023-04-25T15:55:26.810Z,98248.88
2023-04-25T15:57:28.321Z,98250.13
2023-04-25T15:59:29.743Z,98254.13
2023-04-25T16:01:31.441Z,98253.44
2023-04-25T16:03:35.494Z,98250.50
2023-04-25T16:05:38.035Z,98254.50
2023-04-25T16:07:40.269Z,98253.00
2023-04-25T16:09:41.798Z,98247.09
2023-04-25T16:11:43.333Z,98251.59
2023-04-25T16:13:44.968Z,98249.78
2023-04-25T16:15:46.380Z,98247.47
2023-04-25T16:17:47.943Z,98252.28
2023-04-25T16:19:50.301Z,98254.00
2023-04-25T16:21:51.944Z,98257.41
2023-04-25T16:23:53.588Z,98262.72
2023-04-25T16:25:55.217Z,98251.31
2023-04-25T16:27:56.661Z,98255.00
2023-04-25T16:29:58.106Z,98254.25
2023-04-25T16:31:59.667Z,98251.59
2023-04-25T16:34:02.039Z,98253.34
2023-04-25T16:36:03.667Z,98261.72
2023-04-25T16:38:05.311Z,98254.38
2023-04-25T16:40:09.925Z,98259.72
2023-04-25T16:42:11.501Z,98264.19
2023-04-25T16:44:13.429Z,98273.38
2023-04-25T16:46:14.971Z,98269.31
2023-04-25T16:48:19.182Z,98270.53
2023-04-25T16:50:20.753Z,98272.25
2023-04-25T16:52:23.621Z,98269.59
2023-04-25T16:54:28.079Z,98279.09
2023-04-25T16:56:29.516Z,98280.31
2023-04-25T16:58:31.022Z,98280.94
2023-04-25T17:00:32.496Z,98277.75
2023-04-25T17:02:34.126Z,98285.00
2023-04-25T17:04:35.784Z,98284.25
2023-04-25T17:06:37.476Z,98283.25
2023-04-25T17:08:39.006Z,98277.81
2023-04-25T17:10:40.760Z,98289.16
2023-04-25T17:12:42.252Z,98290.84
2023-04-25T17:14:43.836Z,98281.53
2023-04-25T17:16:46.049Z,98291.00
2023-04-25T17:18:47.764Z,98293.84
2023-04-25T17:20:49.220Z,98298.34
2023-04-25T17:22:50.664Z,98303.63
2023-04-25T17:24:52.201Z,98305.34
2023-04-25T17:26:54.279Z,98305.13
2023-04-25T17:28:56.091Z,98304.38
2023-04-25T17:30:57.712Z,98298.94
2023-04-25T17:32:59.266Z,98303.44
2023-04-25T17:35:01.286Z,98308.72
2023-04-25T17:37:03.166Z,98317.59
2023-04-25T17:39:06.355Z,98320.94
2023-04-25T17:41:10.302Z,98317.13
2023-04-25T17:43:11.725Z,98319.66
2023-04-25T17:45:13.729Z,98327.34
2023-04-25T17:47:16.849Z,98321.28
2023-04-25T17:49:18.228Z,98321.84
2023-04-25T17:51:19.655Z,98320.41
2023-04-25T17:53:21.094Z,98328.38
2023-04-25T17:55:23.651Z,98333.28
2023-04-25T17:57:25.364Z,98335.13
2023-04-25T17:59:28.023Z,98329.03
2023-04-25T18:01:30.245Z,98330.06
2023-04-25T18:03:32.340Z,98334.66
2023-04-25T18:05:33.950Z,98333.81
2023-04-25T18:07:36.207Z,98337.59
2023-04-25T18:09:37.715Z,98342.69
2023-04-25T18:11:39.284Z,98345.38
2023-04-25T18:13:41.192Z,98346.44
2023-04-25T18:15:43.073Z,98337.25
2023-04-25T18:17:44.765Z,98344.34
2023-04-25T18:19:46.447Z,98350.88
2023-04-25T18:21:54.189Z,98357.16
2023-04-25T18:23:55.750Z,98349.91
2023-04-25T18:25:57.309Z,98350.97
2023-04-25T18:28:00.067Z,98354.41
2023-04-25T18:30:01.578Z,98358.22
2023-04-25T18:32:05.255Z,98362.00
2023-04-25T18:34:08.182Z,98358.66
2023-04-25T18:36:09.628Z,98370.69
2023-04-25T18:38:11.767Z,98370.91
2023-04-25T18:40:16.054Z,98378.88
2023-04-25T18:42:19.737Z,98374.41
2023-04-25T18:44:21.169Z,98380.13
2023-04-25T18:46:22.783Z,98388.63
2023-04-25T18:48:24.361Z,98391.88
2023-04-25T18:50:26.374Z,98394.03
2023-04-25T18:52:28.001Z,98395.09
2023-04-25T18:54:29.490Z,98403.88
2023-04-25T18:56:31.083Z,98396.09
2023-04-25T18:58:32.511Z,98408.78
2023-04-25T19:00:34.143Z,98413.69
2023-04-25T19:02:37.004Z,98407.88
2023-04-25T19:04:38.775Z,98416.66
2023-04-25T19:06:40.388Z,98419.09
2023-04-25T19:08:41.909Z,98419.94
2023-04-25T19:10:43.381Z,98418.50
2023-04-25T19:12:44.841Z,98426.50
2023-04-25T19:14:46.271Z,98430.06
2023-04-25T19:16:48.105Z,98443.25
2023-04-25T19:18:51.997Z,98446.00
2023-04-25T19:20:53.635Z,98443.25
2023-04-25T19:22:55.080Z,98443.75
2023-04-25T19:25:09.046Z,98445.41
2023-04-25T19:27:11.797Z,98444.28
2023-04-25T19:29:15.141Z,98446.22
2023-04-25T19:31:16.977Z,98446.22
2023-04-25T19:33:19.375Z,98447.84
2023-04-25T19:35:20.914Z,98439.28
2023-04-25T19:37:22.804Z,98448.06
2023-04-25T19:39:24.260Z,98455.25
2023-04-25T19:41:25.750Z,98445.81
2023-04-25T19:43:27.576Z,98441.94
2023-04-25T19:45:29.080Z,98436.09
2023-04-25T19:47:30.554Z,98450.44
2023-04-25T19:49:32.178Z,98448.22
2023-04-25T19:51:34.275Z,98456.50
2023-04-25T19:53:35.727Z,98455.38
2023-04-25T19:55:37.150Z,98458.63
2023-04-25T19:57:38.770Z,98463.88
2023-04-25T19:59:40.950Z,98456.41
2023-04-25T20:01:42.423Z,98458.84
2023-04-25T20:03:44.328Z,98460.50
2023-04-25T20:05:45.784Z,98459.69
2023-04-25T20:07:47.187Z,98465.72
2023-04-25T20:09:49.290Z,98470.13
2023-04-25T20:11:50.840Z,98461.00
2023-04-25T20:13:52.528Z,98465.41
2023-04-25T20:15:54.391Z,98461.00
2023-04-25T20:17:55.964Z,98460.69
2023-04-25T20:19:57.434Z,98461.53
2023-04-25T20:21:58.852Z,98464.59
2023-04-25T20:24:01.488Z,98459.88
2023-04-25T20:26:04.845Z,98460.19
2023-04-25T20:28:06.599Z,98466.53
2023-04-25T20:30:09.953Z,98470.41
2023-04-25T20:32:12.188Z,98477.06
2023-04-25T20:34:13.631Z,98475.41
2023-04-25T20:36:15.597Z,98482.06
2023-04-25T20:38:17.085Z,98484.03
2023-04-25T20:40:18.567Z,98484.31
2023-04-25T20:42:20.000Z,98490.16
2023-04-25T20:44:23.351Z,98484.91
2023-04-25T20:46:25.402Z,98495.44
2023-04-25T20:48:27.263Z,98492.97
2023-04-25T20:50:28.681Z,98497.16
2023-04-25T20:52:31.854Z,98494.69
2023-04-25T20:54:33.899Z,98493.88
2023-04-25T20:56:36.423Z,98490.91
2023-04-25T20:58:37.864Z,98488.13
2023-04-25T21:00:44.331Z,98481.28
2023-04-25T21:02:46.859Z,98484.34
2023-04-25T21:04:48.763Z,98485.78
2023-04-25T21:06:50.396Z,98486.06
2023-04-25T21:08:52.462Z,98486.38
2023-04-25T21:10:54.180Z,98498.84
2023-04-25T21:12:56.530Z,98490.84
2023-04-25T21:15:00.464Z,98485.97
2023-04-25T21:17:02.005Z,98491.47
2023-04-25T21:19:03.892Z,98492.91
2023-04-25T21:21:06.178Z,98492.06
2023-04-25T21:23:07.625Z,98492.69
2023-04-25T21:25:09.528Z,98506.47
2023-04-25T21:27:10.985Z,98505.97
2023-04-25T21:29:12.425Z,98499.94
2023-04-25T21:31:14.611Z,98503.78
2023-04-25T21:33:16.295Z,98501.63
2023-04-25T21:35:19.585Z,98501.03
2023-04-25T21:37:21.101Z,98498.06
2023-04-25T21:39:23.170Z,98497.25
2023-04-25T21:41:25.497Z,98498.38
2023-04-25T21:43:26.955Z,98503.38
2023-04-25T21:45:29.204Z,98499.28
2023-04-25T21:47:32.245Z,98505.06
2023-04-25T21:49:33.688Z,98506.22
2023-04-25T21:51:35.154Z,98512.31
2023-04-25T21:53:36.661Z,98508.72
2023-04-25T21:55:38.113Z,98516.50
2023-04-25T21:57:39.519Z,98517.09
2023-04-25T21:59:41.348Z,98514.91
2023-04-25T22:01:43.490Z,98522.38
2023-04-25T22:03:45.069Z,98519.09
2023-04-25T22:05:46.784Z,98518.59
2023-04-25T22:07:50.473Z,98525.22
2023-04-25T22:09:55.453Z,98523.34
2023-04-25T22:11:58.579Z,98523.16
2023-04-25T22:14:01.146Z,98523.72
2023-04-25T22:16:04.345Z,98522.38
2023-04-25T22:18:05.992Z,98521.88
2023-04-25T22:20:13.225Z,98525.22
2023-04-25T22:22:14.624Z,98532.44
2023-04-25T22:24:16.317Z,98542.66
2023-04-25T22:26:18.229Z,98533.31
2023-04-25T22:28:20.191Z,98529.50
2023-04-25T22:30:21.700Z,98541.94
2023-04-25T22:32:23.085Z,98537.00
2023-04-25T22:34:24.514Z,98535.66
2023-04-25T22:36:27.510Z,98539.84
2023-04-25T22:38:29.692Z,98539.59
2023-04-25T22:40:31.326Z,98541.84
2023-04-25T22:42:40.186Z,98538.03
2023-04-25T22:44:41.610Z,98543.03
2023-04-25T22:46:43.167Z,98543.63
2023-04-25T22:48:45.938Z,98548.06
2023-04-25T22:50:47.356Z,98554.19
2023-04-25T22:52:48.856Z,98548.41
2023-04-25T22:54:50.246Z,98551.47
2023-04-25T22:56:52.296Z,98548.47
2023-04-25T22:58:54.200Z,98552.13
2023-04-25T23:00:55.883Z,98555.97
2023-04-25T23:02:58.145Z,98562.63
2023-04-25T23:05:00.055Z,98553.81
2023-04-25T23:07:01.860Z,98567.88
2023-04-25T23:09:03.967Z,98566.22
2023-04-25T23:11:07.499Z,98562.94
2023-04-25T23:13:09.001Z,98567.09
2023-04-25T23:15:10.848Z,98566.59
2023-04-25T23:17:12.359Z,98570.44
2023-04-25T23:19:14.289Z,98569.09
2023-04-25T23:21:15.735Z,98567.72
2023-04-25T23:23:17.214Z,98573.84
2023-04-25T23:25:19.061Z,98578.53
2023-04-25T23:27:20.866Z,98574.44
2023-04-25T23:29:22.418Z,98573.34
2023-04-25T23:31:23.858Z,98572.81
2023-04-25T23:33:25.850Z,98571.78
2023-04-25T23:35:27.714Z,98575.63
2023-04-25T23:37:30.450Z,98572.34
2023-04-25T23:39:32.217Z,98583.94
2023-04-25T23:41:33.677Z,98581.75
2023-04-25T23:43:35.249Z,98582.06
2023-04-25T23:45:36.734Z,98580.69
2023-04-25T23:47:38.392Z,98586.78
2023-04-25T23:49:40.582Z,98593.66
2023-04-25T23:51:42.251Z,98593.94
2023-04-25T23:53:43.662Z,98594.78
2023-04-25T23:55:45.057Z,98595.09
2023-04-25T23:57:46.602Z,98597.31
2023-04-25T23:59:48.218Z,98598.72
